Terminal Aerodrome Forecast
Issued by NWS

Home | Current Version | Previous Version | Text Only | Print | Product List | Glossary On
Versions: 1 2 3 4 5 6 7 8 9 10 11 12 13 14 15 16 17
000
FTUS43 KDMX 051720
TAFOTM
TAF
KOTM 051720Z 0518/0618 34006KT P6SM SCT100
     FM052000 33006KT P6SM VCSH BKN080
     FM060100 23004KT P6SM SCT100
     FM061700 24012KT P6SM SKC=

USA.gov is the U.S. government's official web portal to all federal, state and local government web resources and services.